createdAt,value
2023-09-09T00:06:12.193Z,75.0
2023-09-09T00:19:12.247Z,75.0
2023-09-09T00:32:12.273Z,77.0
2023-09-09T00:45:12.314Z,76.0
2023-09-09T00:58:12.273Z,78.0
2023-09-09T01:11:12.287Z,79.0
2023-09-09T01:24:12.321Z,78.0
2023-09-09T01:37:12.312Z,79.0
2023-09-09T01:50:12.316Z,80.0
2023-09-09T02:03:12.413Z,78.0
2023-09-09T02:16:12.388Z,79.0
2023-09-09T02:29:12.332Z,79.0
2023-09-09T02:42:12.404Z,80.0
2023-09-09T02:55:12.433Z,80.0
2023-09-09T03:08:12.387Z,80.0
2023-09-09T03:21:12.483Z,81.0
2023-09-09T03:34:12.453Z,81.0
2023-09-09T03:47:12.460Z,82.0
2023-09-09T04:00:12.505Z,84.0
2023-09-09T04:13:12.485Z,84.0
2023-09-09T04:26:12.471Z,84.0
2023-09-09T04:39:12.507Z,84.0
2023-09-09T04:52:12.571Z,83.0
2023-09-09T05:05:12.601Z,83.0
2023-09-09T05:18:12.511Z,85.0
2023-09-09T05:31:12.585Z,86.0
2023-09-09T05:44:12.576Z,86.0
2023-09-09T05:57:12.768Z,86.0
2023-09-09T06:10:12.614Z,84.0
2023-09-09T06:23:12.536Z,82.0
2023-09-09T06:36:12.733Z,82.0
2023-09-09T06:49:12.649Z,79.0
2023-09-09T07:02:12.623Z,71.0
2023-09-09T07:15:12.734Z,68.0
2023-09-09T07:28:12.609Z,60.0
2023-09-09T07:41:12.646Z,55.0
2023-09-09T07:54:12.652Z,50.0
2023-09-09T08:07:12.728Z,48.0
2023-09-09T08:20:12.679Z,44.0
2023-09-09T08:33:12.760Z,45.0
2023-09-09T08:46:12.788Z,44.0
2023-09-09T08:59:12.655Z,43.0
2023-09-09T09:12:12.696Z,43.0
2023-09-09T09:25:12.710Z,41.0
2023-09-09T09:38:12.704Z,41.0
2023-09-09T09:51:12.745Z,40.0
2023-09-09T10:04:12.761Z,40.0
2023-09-09T10:17:12.786Z,37.0
2023-09-09T10:30:15.239Z,39.0
2023-09-09T10:43:12.778Z,39.0
2023-09-09T10:56:12.777Z,39.0
2023-09-09T11:09:12.772Z,40.0
2023-09-09T11:22:12.775Z,40.0
2023-09-09T11:35:12.904Z,39.0
2023-09-09T11:48:12.806Z,38.0
2023-09-09T12:01:12.820Z,38.0
2023-09-09T12:14:12.873Z,39.0
2023-09-09T12:27:12.805Z,38.0
2023-09-09T12:40:12.827Z,38.0
2023-09-09T12:53:12.819Z,36.0
2023-09-09T13:06:12.828Z,35.0
2023-09-09T13:19:12.839Z,36.0
2023-09-09T13:32:12.939Z,35.0
2023-09-09T13:45:12.898Z,35.0
2023-09-09T13:58:12.931Z,37.0
2023-09-09T14:11:13.675Z,35.0
2023-09-09T14:24:13.033Z,34.0
2023-09-09T14:37:13.044Z,35.0
2023-09-09T14:50:13.155Z,35.0
2023-09-09T15:03:12.987Z,37.0
2023-09-09T15:16:13.047Z,36.0
2023-09-09T15:29:13.006Z,37.0
2023-09-09T15:42:13.118Z,39.0
2023-09-09T15:55:13.099Z,42.0
2023-09-09T16:08:13.101Z,45.0
2023-09-09T16:21:13.090Z,49.0
2023-09-09T16:34:13.125Z,55.0
2023-09-09T16:47:13.100Z,60.0
2023-09-09T17:00:13.130Z,63.0
2023-09-09T17:13:13.147Z,64.0
2023-09-09T17:26:13.127Z,65.0
2023-09-09T17:39:13.116Z,65.0
2023-09-09T17:52:13.119Z,67.0
2023-09-09T18:05:13.261Z,70.0
2023-09-09T18:18:13.273Z,74.0
2023-09-09T18:31:13.315Z,74.0
2023-09-09T18:44:13.272Z,76.0
2023-09-09T18:57:13.342Z,77.0
2023-09-09T19:10:13.292Z,78.0
2023-09-09T19:23:13.304Z,79.0
2023-09-09T19:36:13.314Z,76.0
2023-09-09T19:49:13.355Z,76.0
2023-09-09T20:02:13.460Z,76.0
2023-09-09T20:15:13.395Z,76.0
2023-09-09T20:28:13.389Z,76.0
2023-09-09T20:41:13.375Z,77.0
2023-09-09T20:54:13.426Z,77.0
2023-09-09T21:07:13.442Z,79.0
2023-09-09T21:20:13.520Z,79.0
2023-09-09T21:33:13.555Z,79.0
2023-09-09T21:46:13.557Z,80.0
2023-09-09T21:59:13.515Z,81.0
2023-09-09T22:12:13.520Z,81.0
2023-09-09T22:25:13.547Z,81.0
2023-09-09T22:38:13.504Z,79.0
2023-09-09T22:51:13.559Z,73.0
2023-09-09T23:04:13.645Z,71.0
2023-09-09T23:17:13.617Z,73.0
2023-09-09T23:30:13.564Z,77.0
2023-09-09T23:43:13.565Z,80.0
2023-09-09T23:56:13.547Z,82.0
